createdAt,value
2019-03-28T00:01:58.628Z,101077.17
2019-03-28T00:04:24.556Z,101074.08
2019-03-28T00:06:50.508Z,101081.55
2019-03-28T00:09:16.340Z,101083.31
2019-03-28T00:11:42.229Z,101084.67
2019-03-28T00:14:08.052Z,101088.19
2019-03-28T00:16:33.899Z,101083.34
2019-03-28T00:18:59.787Z,101078.54
2019-03-28T00:21:26.290Z,101083.81
2019-03-28T00:23:59.891Z,101080.30
2019-03-28T00:26:30.558Z,101084.27
2019-03-28T00:28:53.609Z,101080.77
2019-03-28T00:32:09.074Z,101080.75
2019-03-28T00:34:35.361Z,101073.28
2019-03-28T00:37:01.403Z,101084.70
2019-03-28T00:39:27.379Z,101080.77
2019-03-28T00:41:53.217Z,101080.33
2019-03-28T00:44:19.160Z,101082.95
2019-03-28T00:46:45.741Z,101082.95
2019-03-28T00:49:11.940Z,101092.62
2019-03-28T00:51:37.771Z,101081.63
2019-03-28T00:54:03.645Z,101084.70
2019-03-28T00:56:42.701Z,101089.11
2019-03-28T00:58:57.379Z,101089.97
2019-03-28T01:01:23.292Z,101087.34
2019-03-28T01:03:49.125Z,101081.65
2019-03-28T01:06:15.104Z,101087.34
2019-03-28T01:08:41.094Z,101090.86
2019-03-28T01:11:06.934Z,101090.87
2019-03-28T01:13:32.770Z,101095.23
2019-03-28T01:15:58.718Z,101092.17
2019-03-28T01:18:24.613Z,101093.06
2019-03-28T01:20:51.217Z,101096.11
2019-03-28T01:23:17.305Z,101090.41
2019-03-28T01:25:43.185Z,101085.55
2019-03-28T01:28:09.005Z,101096.11
2019-03-28T01:30:34.941Z,101088.64
2019-03-28T01:33:01.723Z,101096.09
2019-03-28T01:35:27.571Z,101089.09
2019-03-28T01:37:54.369Z,101093.00
2019-03-28T01:40:20.514Z,101095.63
2019-03-28T01:42:46.361Z,101103.06
2019-03-28T01:45:12.685Z,101097.81
2019-03-28T01:47:38.677Z,101100.42
2019-03-28T01:50:04.807Z,101101.72
2019-03-28T01:52:30.681Z,101097.77
2019-03-28T01:54:56.529Z,101104.69
2019-03-28T01:57:22.380Z,101108.77
2019-03-28T01:59:48.260Z,101114.94
2019-03-28T02:02:14.085Z,101104.37
2019-03-28T02:04:40.000Z,101106.07
2019-03-28T02:07:05.885Z,101104.33
2019-03-28T02:09:32.326Z,101106.48
2019-03-28T02:11:58.355Z,101098.69
2019-03-28T02:14:24.230Z,101101.81
2019-03-28T02:16:50.173Z,101105.36
2019-03-28T02:19:16.018Z,101106.22
2019-03-28T02:21:41.847Z,101099.20
2019-03-28T02:24:07.776Z,101092.55
2019-03-28T02:26:34.243Z,101092.11
2019-03-28T02:29:00.301Z,101097.94
2019-03-28T02:31:26.138Z,101093.71
2019-03-28T02:33:51.984Z,101089.83
2019-03-28T02:36:17.870Z,101103.43
2019-03-28T02:38:43.713Z,101096.92
2019-03-28T02:41:09.567Z,101107.03
2019-03-28T02:43:35.520Z,101104.86
2019-03-28T02:46:01.349Z,101102.25
2019-03-28T02:48:27.800Z,101108.41
2019-03-28T02:50:53.949Z,101110.60
2019-03-28T02:53:19.845Z,101114.14
2019-03-28T02:55:45.689Z,101116.77
2019-03-28T02:58:11.540Z,101111.05
2019-03-28T03:00:37.391Z,101107.52
2019-03-28T03:03:03.430Z,101114.08
2019-03-28T03:05:29.406Z,101119.40
2019-03-28T03:07:55.248Z,101112.36
2019-03-28T03:10:21.116Z,101118.51
2019-03-28T03:12:46.949Z,101118.48
2019-03-28T03:15:13.392Z,101108.38
2019-03-28T03:17:39.378Z,101122.88
2019-03-28T03:20:05.924Z,101120.66
2019-03-28T03:22:31.775Z,101117.58
2019-03-28T03:24:57.676Z,101114.53
2019-03-28T03:27:23.506Z,101116.20
2019-03-28T03:29:49.446Z,101124.56
2019-03-28T03:32:15.309Z,101118.91
2019-03-28T03:34:41.200Z,101118.44
2019-03-28T03:37:07.190Z,101120.63
2019-03-28T03:39:33.017Z,101120.61
2019-03-28T03:41:59.056Z,101121.06
2019-03-28T03:44:24.959Z,101121.01
2019-03-28T03:46:50.788Z,101121.01
2019-03-28T03:49:18.658Z,101123.64
2019-03-28T03:51:46.624Z,101124.95
2019-03-28T03:54:12.519Z,101113.12
2019-03-28T03:56:38.356Z,101132.39
2019-03-28T03:59:04.297Z,101133.27
2019-03-28T04:01:30.244Z,101124.47
2019-03-28T04:03:56.297Z,101135.37
2019-03-28T04:06:22.225Z,101134.94
2019-03-28T04:08:48.103Z,101141.00
2019-03-28T04:11:14.112Z,101141.03
2019-03-28T04:13:40.033Z,101140.56
2019-03-28T04:16:06.016Z,101142.23
2019-03-28T04:18:31.946Z,101142.23
2019-03-28T04:20:58.432Z,101144.88
2019-03-28T04:23:24.335Z,101149.69
2019-03-28T04:25:50.294Z,101146.11
2019-03-28T04:28:30.846Z,101150.95
2019-03-28T04:30:44.005Z,101147.86
2019-03-28T04:33:09.905Z,101148.31
2019-03-28T04:35:35.800Z,101150.05
2019-03-28T04:38:01.705Z,101152.24
2019-03-28T04:40:27.601Z,101151.33
2019-03-28T04:42:53.495Z,101153.06
2019-03-28T04:45:19.533Z,101164.55
2019-03-28T04:47:45.450Z,101153.57
2019-03-28T04:50:11.902Z,101149.64
2019-03-28T04:52:37.819Z,101158.37
2019-03-28T04:55:05.230Z,101157.48
2019-03-28T04:57:31.237Z,101154.42
2019-03-28T04:59:57.151Z,101160.08
2019-03-28T05:02:23.033Z,101165.37
2019-03-28T05:04:49.057Z,101162.28
2019-03-28T05:07:14.942Z,101168.36
2019-03-28T05:09:40.865Z,101168.84
2019-03-28T05:12:06.738Z,101170.06
2019-03-28T05:14:32.636Z,101172.69
2019-03-28T05:16:58.575Z,101178.80
2019-03-28T05:19:24.483Z,101186.20
2019-03-28T05:21:50.403Z,101189.01
2019-03-28T05:24:16.336Z,101189.01
2019-03-28T05:26:42.241Z,101190.69
2019-03-28T05:29:08.149Z,101197.75
2019-03-28T05:31:34.412Z,101188.77
2019-03-28T05:34:00.495Z,101193.03
2019-03-28T05:36:26.692Z,101199.16
2019-03-28T05:38:52.612Z,101192.69
2019-03-28T05:41:18.511Z,101192.64
2019-03-28T05:43:45.552Z,101198.73
2019-03-28T05:46:11.702Z,101201.74
2019-03-28T05:48:37.650Z,101199.50
2019-03-28T05:51:03.761Z,101209.70
2019-03-28T05:53:29.609Z,101206.19
2019-03-28T05:55:55.444Z,101210.25
2019-03-28T05:58:21.356Z,101214.95
2019-03-28T06:00:51.150Z,101219.03
2019-03-28T06:03:14.996Z,101216.45
2019-03-28T06:05:40.863Z,101215.51
2019-03-28T06:08:06.699Z,101216.91
2019-03-28T06:10:32.562Z,101218.78
2019-03-28T06:12:58.401Z,101212.57
2019-03-28T06:15:26.142Z,101219.17
2019-03-28T06:17:52.127Z,101217.88
2019-03-28T06:20:18.055Z,101217.48
2019-03-28T06:22:43.921Z,101225.47
2019-03-28T06:25:09.900Z,101228.48
2019-03-28T06:27:35.815Z,101236.51
2019-03-28T06:30:02.610Z,101229.47
2019-03-28T06:32:41.993Z,101233.44
2019-03-28T06:34:56.285Z,101230.02
2019-03-28T06:37:22.312Z,101234.84
2019-03-28T06:39:48.169Z,101239.68
2019-03-28T06:42:14.007Z,101233.96
2019-03-28T06:44:39.886Z,101241.48
2019-03-28T06:47:05.709Z,101245.01
2019-03-28T06:49:31.654Z,101248.52
2019-03-28T06:51:57.504Z,101246.77
2019-03-28T06:54:24.463Z,101241.50
2019-03-28T06:56:50.523Z,101243.71
2019-03-28T06:59:16.563Z,101240.21
2019-03-28T07:01:42.394Z,101241.09
2019-03-28T07:04:08.358Z,101245.02
2019-03-28T07:06:34.324Z,101247.20
2019-03-28T07:09:00.138Z,101248.97
2019-03-28T07:11:26.089Z,101245.47
2019-03-28T07:13:51.927Z,101244.56
2019-03-28T07:16:20.924Z,101244.07
2019-03-28T07:18:45.550Z,101244.97
2019-03-28T07:21:11.569Z,101247.59
2019-03-28T07:23:37.446Z,101252.37
2019-03-28T07:26:03.323Z,101245.73
2019-03-28T07:28:29.189Z,101247.47
2019-03-28T07:30:55.126Z,101250.98
2019-03-28T07:33:21.145Z,101245.97
2019-03-28T07:35:47.072Z,101259.99
2019-03-28T07:38:12.899Z,101245.02
2019-03-28T07:40:38.840Z,101248.98
2019-03-28T07:43:04.762Z,101248.78
2019-03-28T07:45:30.747Z,101250.79
2019-03-28T07:47:56.587Z,101248.59
2019-03-28T07:50:22.597Z,101245.86
2019-03-28T07:52:48.568Z,101244.54
2019-03-28T07:55:16.478Z,101243.00
2019-03-28T07:57:42.312Z,101244.70
2019-03-28T08:00:10.132Z,101243.67
2019-03-28T08:02:35.959Z,101244.80
2019-03-28T08:05:03.820Z,101247.00
2019-03-28T08:07:29.774Z,101241.81
2019-03-28T08:09:55.606Z,101247.18
2019-03-28T08:12:23.228Z,101251.95
2019-03-28T08:14:49.195Z,101250.64
2019-03-28T08:17:15.093Z,101250.71
2019-03-28T08:19:41.681Z,101246.06
2019-03-28T08:22:07.606Z,101248.96
2019-03-28T08:24:33.487Z,101256.98
2019-03-28T08:26:59.310Z,101248.88
2019-03-28T08:29:25.259Z,101250.15
2019-03-28T08:31:52.762Z,101255.00
2019-03-28T08:34:18.885Z,101259.33
2019-03-28T08:36:45.633Z,101254.36
2019-03-28T08:39:11.535Z,101259.12
2019-03-28T08:41:37.381Z,101262.03
2019-03-28T08:44:03.432Z,101259.91
2019-03-28T08:46:29.435Z,101262.38
2019-03-28T08:48:55.254Z,101259.43
2019-03-28T08:51:21.243Z,101258.56
2019-03-28T08:53:47.097Z,101260.34
2019-03-28T08:56:12.955Z,101253.89
2019-03-28T08:58:38.779Z,101250.71
2019-03-28T09:01:05.884Z,101256.97
2019-03-28T09:03:32.107Z,101253.55
2019-03-28T09:05:57.942Z,101250.13
2019-03-28T09:08:23.810Z,101256.23
2019-03-28T09:10:49.640Z,101249.42
2019-03-28T09:13:15.601Z,101245.98
2019-03-28T09:15:44.114Z,101249.48
2019-03-28T09:18:09.732Z,101258.17
2019-03-28T09:20:35.586Z,101246.66
2019-03-28T09:23:01.562Z,101250.47
2019-03-28T09:25:27.480Z,101250.56
2019-03-28T09:27:53.412Z,101248.70
2019-03-28T09:30:48.095Z,101250.72
2019-03-28T09:33:05.433Z,101248.14
2019-03-28T09:35:31.504Z,101245.05
2019-03-28T09:37:57.501Z,101239.09
2019-03-28T09:40:23.461Z,101241.02
2019-03-28T09:42:49.498Z,101238.30
2019-03-28T09:45:15.579Z,101238.16
2019-03-28T09:47:41.508Z,101227.73
2019-03-28T09:50:07.875Z,101236.17
2019-03-28T09:52:33.735Z,101233.90
2019-03-28T09:54:59.662Z,101235.61
2019-03-28T09:57:25.500Z,101236.47
2019-03-28T09:59:51.548Z,101232.40
2019-03-28T10:02:17.426Z,101231.30
2019-03-28T10:04:43.254Z,101231.47
2019-03-28T10:07:09.156Z,101235.50
2019-03-28T10:09:35.450Z,101228.00
2019-03-28T10:12:01.474Z,101229.21
2019-03-28T10:14:27.442Z,101221.39
2019-03-28T10:16:53.276Z,101227.73
2019-03-28T10:19:19.329Z,101221.30
2019-03-28T10:21:45.255Z,101224.73
2019-03-28T10:24:11.623Z,101219.81
2019-03-28T10:26:37.737Z,101224.18
2019-03-28T10:29:03.731Z,101223.84
2019-03-28T10:31:29.749Z,101221.00
2019-03-28T10:33:55.696Z,101213.55
2019-03-28T10:36:21.575Z,101218.12
2019-03-28T10:38:47.470Z,101208.40
2019-03-28T10:41:13.382Z,101214.39
2019-03-28T10:43:39.352Z,101219.82
2019-03-28T10:46:05.363Z,101216.36
2019-03-28T10:48:31.409Z,101208.02
2019-03-28T10:50:57.395Z,101202.86
2019-03-28T10:53:29.825Z,101203.64
2019-03-28T10:55:54.362Z,101206.66
2019-03-28T10:58:20.482Z,101196.22
2019-03-28T11:00:46.496Z,101194.22
2019-03-28T11:03:12.469Z,101188.91
2019-03-28T11:05:38.422Z,101187.94
2019-03-28T11:08:04.430Z,101183.03
2019-03-28T11:10:30.734Z,101183.45
2019-03-28T11:12:56.752Z,101174.12
2019-03-28T11:15:22.856Z,101177.74
2019-03-28T11:17:48.933Z,101176.19
2019-03-28T11:20:15.047Z,101181.56
2019-03-28T11:22:41.022Z,101173.66
2019-03-28T11:25:07.152Z,101167.03
2019-03-28T11:27:33.258Z,101164.28
2019-03-28T11:29:59.547Z,101162.01
2019-03-28T11:32:25.656Z,101163.13
2019-03-28T11:34:51.657Z,101157.48
2019-03-28T11:37:26.068Z,101157.81
2019-03-28T11:39:46.641Z,101164.67
2019-03-28T11:42:12.895Z,101157.77
2019-03-28T11:44:38.763Z,101157.95
2019-03-28T11:47:04.608Z,101157.23
2019-03-28T11:49:30.522Z,101156.90
2019-03-28T11:51:56.565Z,101149.28
2019-03-28T11:54:22.529Z,101147.64
2019-03-28T11:56:48.538Z,101150.25
2019-03-28T11:59:14.484Z,101150.78
2019-03-28T12:01:40.412Z,101144.88
2019-03-28T12:04:06.335Z,101123.11
2019-03-28T12:06:32.368Z,101132.58
2019-03-28T12:08:58.210Z,101135.88
2019-03-28T12:11:24.102Z,101131.14
2019-03-28T12:13:50.041Z,101133.62
2019-03-28T12:16:16.995Z,101123.69
2019-03-28T12:18:43.167Z,101123.61
2019-03-28T12:21:09.237Z,101112.79
2019-03-28T12:23:35.128Z,101108.98
2019-03-28T12:26:01.150Z,101110.06
2019-03-28T12:28:27.223Z,101101.25
2019-03-28T12:30:53.115Z,101111.33
2019-03-28T12:33:19.318Z,101105.47
2019-03-28T12:35:45.184Z,101104.98
2019-03-28T12:38:11.089Z,101094.77
2019-03-28T12:40:37.036Z,101088.12
2019-03-28T12:43:03.050Z,101084.93
2019-03-28T12:45:29.035Z,101091.73
2019-03-28T12:47:54.876Z,101082.13
2019-03-28T12:50:20.870Z,101086.86
2019-03-28T12:52:46.816Z,101097.17
2019-03-28T12:55:12.962Z,101082.02
2019-03-28T12:57:38.891Z,101075.03
2019-03-28T13:00:06.850Z,101071.92
2019-03-28T13:02:33.017Z,101071.36
2019-03-28T13:04:59.165Z,101072.82
2019-03-28T13:07:25.607Z,101060.05
2019-03-28T13:09:51.713Z,101061.27
2019-03-28T13:12:17.651Z,101049.27
2019-03-28T13:14:43.462Z,101062.64
2019-03-28T13:17:09.453Z,101062.00
2019-03-28T13:19:35.366Z,101057.44
2019-03-28T13:22:02.435Z,101066.20
2019-03-28T13:24:28.684Z,101068.48
2019-03-28T13:26:54.579Z,101051.48
2019-03-28T13:29:20.696Z,101046.52
2019-03-28T13:31:46.616Z,101043.87
2019-03-28T13:34:12.462Z,101033.26
2019-03-28T13:36:38.391Z,101037.36
2019-03-28T13:39:05.192Z,101032.48
2019-03-28T13:41:31.308Z,101044.21
2019-03-28T13:43:57.504Z,101027.88
2019-03-28T13:46:23.437Z,101028.92
2019-03-28T13:48:49.285Z,101034.41
2019-03-28T13:51:15.145Z,101024.03
2019-03-28T13:53:41.075Z,101031.35
2019-03-28T13:56:07.003Z,101025.48
2019-03-28T13:58:32.953Z,101020.36
2019-03-28T14:00:59.008Z,101001.46
2019-03-28T14:03:26.730Z,100996.16
2019-03-28T14:05:52.664Z,101003.70
2019-03-28T14:08:18.609Z,101001.47
2019-03-28T14:10:44.783Z,100999.27
2019-03-28T14:13:10.715Z,101005.11
2019-03-28T14:15:36.649Z,101014.20
2019-03-28T14:18:02.786Z,101001.02
2019-03-28T14:20:28.796Z,101001.09
2019-03-28T14:22:54.760Z,101008.73
2019-03-28T14:25:20.825Z,101008.70
2019-03-28T14:27:46.940Z,101003.23
2019-03-28T14:30:12.982Z,101002.14
2019-03-28T14:32:52.121Z,101000.80
2019-03-28T14:35:06.868Z,101004.58
2019-03-28T14:37:32.901Z,101006.77
2019-03-28T14:39:59.102Z,101004.86
2019-03-28T14:42:25.063Z,101018.45
2019-03-28T14:44:50.993Z,101008.71
2019-03-28T14:47:16.894Z,100995.34
2019-03-28T14:49:42.891Z,101002.40
2019-03-28T14:52:09.104Z,100994.56
2019-03-28T14:54:35.165Z,101003.69
2019-03-28T14:57:01.786Z,100980.52
2019-03-28T14:59:32.687Z,100989.76
2019-03-28T15:01:55.729Z,100989.09
2019-03-28T15:04:21.630Z,100993.49
2019-03-28T15:06:47.678Z,101002.03
2019-03-28T15:09:13.553Z,100995.75
2019-03-28T15:11:39.569Z,100990.96
2019-03-28T15:14:05.587Z,100996.52
2019-03-28T15:16:31.489Z,100993.10
2019-03-28T15:18:57.405Z,100990.66
2019-03-28T15:21:23.463Z,100982.69
2019-03-28T15:23:49.329Z,100984.19
2019-03-28T15:26:15.321Z,101015.05
2019-03-28T15:28:41.229Z,100998.35
2019-03-28T15:31:07.339Z,101000.55
2019-03-28T15:33:39.317Z,100996.10
2019-03-28T15:36:01.125Z,100991.75
2019-03-28T15:38:27.065Z,101001.55
2019-03-28T15:40:52.980Z,100993.45
2019-03-28T15:43:18.903Z,100993.14
2019-03-28T15:45:44.832Z,100991.11
2019-03-28T15:48:11.002Z,100973.27
2019-03-28T15:50:36.895Z,100982.11
2019-03-28T15:53:02.925Z,100982.77
2019-03-28T15:55:28.911Z,100972.14
2019-03-28T15:57:54.815Z,100976.00
2019-03-28T16:00:20.951Z,100954.05
2019-03-28T16:02:46.905Z,100956.88
2019-03-28T16:05:12.890Z,100945.64
2019-03-28T16:07:38.741Z,100949.25
2019-03-28T16:10:09.751Z,100954.52
2019-03-28T16:12:35.848Z,100958.87
2019-03-28T16:15:03.147Z,100957.73
2019-03-28T16:17:29.247Z,100949.62
2019-03-28T16:19:55.235Z,100956.48
2019-03-28T16:22:21.214Z,100954.84
2019-03-28T16:24:47.128Z,100964.72
2019-03-28T16:27:13.136Z,100959.27
2019-03-28T16:29:39.198Z,100953.30
2019-03-28T16:32:05.196Z,100950.00
2019-03-28T16:34:31.082Z,100953.67
2019-03-28T16:36:57.069Z,100947.02
2019-03-28T16:39:22.992Z,100947.69
2019-03-28T16:41:49.629Z,100947.02
2019-03-28T16:44:15.954Z,100940.48
2019-03-28T16:46:41.970Z,100949.59
2019-03-28T16:49:08.287Z,100947.57
2019-03-28T16:51:34.486Z,100944.41
2019-03-28T16:54:01.599Z,100949.85
2019-03-28T16:56:28.087Z,100951.52
2019-03-28T16:58:55.526Z,100955.59
2019-03-28T17:01:21.985Z,100956.81
2019-03-28T17:03:47.895Z,100957.47
2019-03-28T17:06:13.986Z,100958.68
2019-03-28T17:08:44.077Z,100952.49
2019-03-28T17:11:12.176Z,100959.66
2019-03-28T17:13:38.141Z,100962.03
2019-03-28T17:16:04.284Z,100960.77
2019-03-28T17:18:31.274Z,100966.95
2019-03-28T17:20:57.619Z,100958.70
2019-03-28T17:23:23.683Z,100965.63
2019-03-28T17:25:49.612Z,100968.87
2019-03-28T17:28:15.712Z,100958.30
2019-03-28T17:30:41.956Z,100962.97
2019-03-28T17:33:07.863Z,100966.92
2019-03-28T17:35:33.773Z,100967.64
2019-03-28T17:37:59.815Z,100969.77
2019-03-28T17:40:25.747Z,100968.27
2019-03-28T17:42:51.698Z,100970.27
2019-03-28T17:45:17.615Z,100966.67
2019-03-28T17:47:43.493Z,100972.19
2019-03-28T17:50:09.877Z,100979.79
2019-03-28T17:52:36.021Z,100981.08
2019-03-28T17:55:03.676Z,100981.08
2019-03-28T17:57:29.867Z,100986.08
2019-03-28T17:59:55.765Z,100980.80
2019-03-28T18:02:21.875Z,100984.79
2019-03-28T18:04:48.417Z,100999.58
2019-03-28T18:07:14.343Z,100995.12
2019-03-28T18:09:40.438Z,100993.18
2019-03-28T18:12:06.251Z,101021.09
2019-03-28T18:14:32.224Z,101004.05
2019-03-28T18:16:59.558Z,101005.59
2019-03-28T18:19:25.559Z,101005.12
2019-03-28T18:22:02.766Z,101000.38
2019-03-28T18:24:19.766Z,101004.01
2019-03-28T18:26:45.751Z,101011.62
2019-03-28T18:29:11.690Z,101011.34
2019-03-28T18:31:49.688Z,101012.05
2019-03-28T18:34:05.520Z,101020.09
2019-03-28T18:36:31.372Z,101018.87
2019-03-28T18:38:57.459Z,101020.65
2019-03-28T18:41:23.566Z,101018.85
2019-03-28T18:43:49.861Z,101022.16
2019-03-28T18:46:15.978Z,101026.36
2019-03-28T18:48:42.030Z,101032.91
2019-03-28T18:51:08.144Z,101035.16
2019-03-28T18:53:34.106Z,101041.83
2019-03-28T18:56:00.034Z,101043.67
2019-03-28T18:58:25.955Z,101040.27
2019-03-28T19:00:52.256Z,101050.34
2019-03-28T19:03:18.291Z,101052.51
2019-03-28T19:05:44.247Z,101057.74
2019-03-28T19:08:10.179Z,101062.75
2019-03-28T19:10:36.244Z,101061.34
2019-03-28T19:13:04.618Z,101065.52
2019-03-28T19:15:30.252Z,101077.19
2019-03-28T19:17:56.160Z,101072.95
2019-03-28T19:20:22.120Z,101081.17
2019-03-28T19:22:50.177Z,101093.30
2019-03-28T19:25:16.213Z,101089.85
2019-03-28T19:27:42.215Z,101100.09
2019-03-28T19:30:09.203Z,101098.69
2019-03-28T19:32:35.279Z,101102.46
2019-03-28T19:35:03.369Z,101092.63
2019-03-28T19:37:30.029Z,101107.70
2019-03-28T19:39:55.864Z,101110.11
2019-03-28T19:42:22.655Z,101115.91
2019-03-28T19:44:49.806Z,101120.46
2019-03-28T19:47:15.634Z,101124.84
2019-03-28T19:49:41.706Z,101126.23
2019-03-28T19:52:07.694Z,101128.09
2019-03-28T19:54:33.821Z,101140.95
2019-03-28T19:56:59.861Z,101140.45
2019-03-28T19:59:26.027Z,101149.52
2019-03-28T20:01:52.271Z,101145.02
2019-03-28T20:04:18.089Z,101145.54
2019-03-28T20:06:44.206Z,101154.48
2019-03-28T20:09:16.208Z,101145.59
2019-03-28T20:11:39.020Z,101157.91
2019-03-28T20:14:05.203Z,101158.77
2019-03-28T20:16:31.161Z,101163.59
2019-03-28T20:18:57.147Z,101159.59
2019-03-28T20:21:23.128Z,101169.63
2019-03-28T20:23:49.215Z,101168.77
2019-03-28T20:26:15.137Z,101167.02
2019-03-28T20:28:41.192Z,101179.00
2019-03-28T20:31:07.280Z,101175.57
2019-03-28T20:33:33.316Z,101187.48
2019-03-28T20:36:18.857Z,101187.16
2019-03-28T20:38:27.272Z,101185.36
2019-03-28T20:40:53.234Z,101186.32
2019-03-28T20:43:19.165Z,101189.03
2019-03-28T20:45:45.397Z,101190.28
2019-03-28T20:48:11.432Z,101198.19
2019-03-28T20:50:37.444Z,101198.75
2019-03-28T20:53:03.549Z,101206.69
2019-03-28T20:55:29.548Z,101223.45
2019-03-28T21:00:36.750Z,101223.72
2019-03-28T21:03:03.397Z,101234.88
2019-03-28T21:05:30.918Z,101230.50
2019-03-28T21:07:57.033Z,101233.98
2019-03-28T21:10:23.991Z,101238.86
2019-03-28T21:12:50.350Z,101242.41
2019-03-28T21:15:16.317Z,101239.38
2019-03-28T21:17:42.290Z,101243.52
2019-03-28T21:20:08.441Z,101237.86
2019-03-28T21:22:34.385Z,101268.36
2019-03-28T21:25:00.381Z,101234.41
2019-03-28T21:27:26.287Z,101233.20
2019-03-28T21:29:52.389Z,101236.55
2019-03-28T21:32:18.895Z,101236.23
2019-03-28T21:34:45.030Z,101236.34
2019-03-28T21:37:11.194Z,101243.83
2019-03-28T21:39:39.945Z,101236.42
2019-03-28T21:42:07.208Z,101242.89
2019-03-28T21:44:33.063Z,101242.44
2019-03-28T21:46:59.105Z,101243.78
2019-03-28T21:49:24.975Z,101247.33
2019-03-28T21:51:50.967Z,101242.11
2019-03-28T21:54:16.914Z,101245.23
2019-03-28T21:56:42.876Z,101246.21
2019-03-28T21:59:09.006Z,101250.73
2019-03-28T22:01:34.909Z,101258.33
2019-03-28T22:04:00.729Z,101257.86
2019-03-28T22:06:26.725Z,101258.73
2019-03-28T22:08:52.583Z,101261.88
2019-03-28T22:11:18.817Z,101259.23
2019-03-28T22:13:44.767Z,101264.11
2019-03-28T22:16:10.645Z,101278.64
2019-03-28T22:18:36.484Z,101267.61
2019-03-28T22:21:02.468Z,101258.32
2019-03-28T22:23:30.497Z,101261.88
2019-03-28T22:25:56.488Z,101243.79
2019-03-28T22:28:22.466Z,101266.25
2019-03-28T22:30:48.638Z,101273.35
2019-03-28T22:33:15.773Z,101268.07
2019-03-28T22:35:41.812Z,101268.11
2019-03-28T22:38:07.828Z,101267.28
2019-03-28T22:40:33.822Z,101272.56
2019-03-28T22:42:59.718Z,101281.39
2019-03-28T22:45:25.801Z,101282.28
2019-03-28T22:47:51.694Z,101295.05
2019-03-28T22:50:17.529Z,101285.80
2019-03-28T22:52:43.705Z,101289.73
2019-03-28T22:55:10.274Z,101287.95
2019-03-28T22:57:36.250Z,101300.33
2019-03-28T23:00:05.973Z,101302.06
2019-03-28T23:02:31.829Z,101297.23
2019-03-28T23:04:57.763Z,101293.72
2019-03-28T23:07:23.607Z,101295.02
2019-03-28T23:09:49.822Z,101295.48
2019-03-28T23:12:16.403Z,101298.13
2019-03-28T23:14:42.368Z,101299.03
2019-03-28T23:17:08.408Z,101305.20
2019-03-28T23:19:34.316Z,101303.44
2019-03-28T23:22:00.154Z,101301.29
2019-03-28T23:24:26.099Z,101298.63
2019-03-28T23:26:52.059Z,101309.19
2019-03-28T23:29:18.084Z,101306.95
2019-03-28T23:31:43.923Z,101303.89
2019-03-28T23:34:09.833Z,101303.45
2019-03-28T23:36:35.672Z,101302.56
2019-03-28T23:39:01.845Z,101305.23
2019-03-28T23:41:27.738Z,101308.31
2019-03-28T23:43:53.651Z,101310.06
2019-03-28T23:46:19.508Z,101320.59
2019-03-28T23:48:45.605Z,101316.20
2019-03-28T23:51:11.561Z,101316.66
2019-03-28T23:53:37.621Z,101318.86
2019-03-28T23:56:03.508Z,101317.11
2019-03-28T23:58:29.447Z,101321.94
